Savanna, Illinois
Current Conditions -  °F | °C
As of 3:35 PM on Monday 24 Nov 2014 (Local Time) from KSFY Reporting Station
Light Snow Light Snow  
Wind Chill: 15°   Ceiling: 1400
Heat Index: 26°   Visibility: 5mi
Dew Point: 23°   Wind: 14mph
Humidity: 86%   Direction: 270°W
Pressure: 29.6"   Gusts: 21mph
Location:  42.09°N, 90.16°W
Report Text: KSFY 242135Z AUTO 27012G18KT 5SM -SN OVC014 M03/M05 A2960 RMK AO2 T10311052
Loading
Personal Weather Stations






























Interactive Weather Map New forecast layout! Learn more

10-Day Weather Forecast

Advertisements
Track Severe Weather on mobile